Time;durP1;ratioP1;P1;durP2;ratioP2;P2;SDS_P1;SDS_P2;PMS_P1;PMS_P2;Temp;Humidity;BMP_temperature;BMP_pressure;BME280_temperature;BME280_humidity;BME280_pressure;Samples;Min_cycle;Max_cycle;Signal;HPM_P1;HPM_P2
2021/09/15 00:01:37;;;;;;;3.50;1.10;;;;;;;;;;5030608;28;20099;-79
2021/09/15 00:04:03;;;;;;;1.10;1.10;;;;;;;;;;5030990;28;20045;-79
2021/09/15 00:06:30;;;;;;;1.30;1.20;;;;;;;;;;5028181;28;20049;-79
2021/09/15 00:08:57;;;;;;;1.40;1.30;;;;;;;;;;5029815;28;20034;-79
2021/09/15 00:11:24;;;;;;;1.30;1.10;;;;;;;;;;5026836;28;20038;-79
2021/09/15 00:13:51;;;;;;;6.88;1.20;;;;;;;;;;5020162;28;21419;-79
2021/09/15 00:16:18;;;;;;;0.95;0.95;;;;;;;;;;5010473;28;20097;-79
2021/09/15 00:18:45;;;;;;;2.15;1.00;;;;;;;;;;5025061;28;20466;-79
2021/09/15 00:21:12;;;;;;;1.00;1.00;;;;;;;;;;5026540;28;20045;-79
2021/09/15 00:23:39;;;;;;;1.77;1.17;;;;;;;;;;5024989;28;20045;-79
2021/09/15 00:26:05;;;;;;;1.10;1.10;;;;;;;;;;5026492;28;20096;-79
2021/09/15 00:28:32;;;;;;;1.60;1.20;;;;;;;;;;5062651;28;20099;-79
2021/09/15 00:30:59;;;;;;;2.15;1.10;;;;;;;;;;5028699;28;20041;-79
2021/09/15 00:33:26;;;;;;;1.20;1.20;;;;;;;;;;5030027;28;20048;-79
2021/09/15 00:35:53;;;;;;;1.00;1.00;;;;;;;;;;5030015;28;20041;-79
2021/09/15 00:38:19;;;;;;;1.13;1.10;;;;;;;;;;5022392;28;20069;-79
2021/09/15 00:40:46;;;;;;;2.42;0.90;;;;;;;;;;5022267;28;20065;-79
2021/09/15 00:43:13;;;;;;;0.90;0.90;;;;;;;;;;5024183;28;20095;-79
2021/09/15 00:45:40;;;;;;;1.20;0.98;;;;;;;;;;5024720;28;20065;-79
2021/09/15 00:48:06;;;;;;;1.02;1.02;;;;;;;;;;5054681;28;20046;-79
2021/09/15 00:50:33;;;;;;;0.90;0.90;;;;;;;;;;5047619;28;20076;-79
2021/09/15 00:53:01;;;;;;;1.02;1.02;;;;;;;;;;5012645;28;20045;-79
2021/09/15 00:55:28;;;;;;;2.15;1.48;;;;;;;;;;5027711;28;20470;-79
2021/09/15 00:57:55;;;;;;;1.30;1.30;;;;;;;;;;5046581;28;20072;-79
2021/09/15 01:00:22;;;;;;;2.55;1.98;;;;;;;;;;5021801;28;20084;-79
2021/09/15 01:02:48;;;;;;;2.33;1.20;;;;;;;;;;5019084;28;20049;-79
2021/09/15 01:05:15;;;;;;;1.15;1.08;;;;;;;;;;5029223;28;20596;-79
2021/09/15 01:07:42;;;;;;;1.15;1.15;;;;;;;;;;5027691;28;20437;-79
2021/09/15 01:10:09;;;;;;;1.10;1.10;;;;;;;;;;5029193;28;20045;-79
2021/09/15 01:12:37;;;;;;;1.20;1.10;;;;;;;;;;5062051;28;20677;-79
2021/09/15 01:15:04;;;;;;;1.40;1.40;;;;;;;;;;5027945;28;20663;-79
2021/09/15 01:17:31;;;;;;;1.30;1.20;;;;;;;;;;5026926;28;20041;-79
2021/09/15 01:19:57;;;;;;;1.20;1.10;;;;;;;;;;5027787;28;20482;-79
2021/09/15 01:22:25;;;;;;;1.77;1.52;;;;;;;;;;5027985;28;20045;-79
2021/09/15 01:24:52;;;;;;;1.45;1.45;;;;;;;;;;5023788;28;20080;-79
2021/09/15 01:27:19;;;;;;;4.57;1.58;;;;;;;;;;5029358;28;20096;-79
2021/09/15 01:29:46;;;;;;;1.30;1.30;;;;;;;;;;5028833;28;20042;-79
2021/09/15 01:32:13;;;;;;;1.15;1.13;;;;;;;;;;5028820;28;20033;-79
2021/09/15 01:34:41;;;;;;;1.20;1.20;;;;;;;;;;5028349;28;20049;-79
2021/09/15 01:37:09;;;;;;;1.33;1.23;;;;;;;;;;5025510;28;20076;-80
2021/09/15 01:39:36;;;;;;;1.20;1.20;;;;;;;;;;5027860;28;20103;-79
2021/09/15 01:42:04;;;;;;;1.73;1.20;;;;;;;;;;5023444;28;20132;-79
2021/09/15 01:44:34;;;;;;;3.50;1.63;;;;;;;;;;5023912;28;20152;-79
2021/09/15 01:47:01;;;;;;;1.70;1.48;;;;;;;;;;5016810;28;20430;-79
2021/09/15 01:49:32;;;;;;;1.50;1.40;;;;;;;;;;5028582;28;20064;-79
2021/09/15 01:52:00;;;;;;;1.42;1.20;;;;;;;;;;5029361;28;20046;-79
2021/09/15 01:54:27;;;;;;;1.98;1.88;;;;;;;;;;5022738;28;20033;-79
2021/09/15 01:56:54;;;;;;;1.20;1.20;;;;;;;;;;5028025;28;20489;-79
2021/09/15 01:59:21;;;;;;;1.00;1.00;;;;;;;;;;5032394;28;20413;-79
2021/09/15 02:01:48;;;;;;;1.20;1.20;;;;;;;;;;5032488;28;20150;-79
2021/09/15 02:04:15;;;;;;;1.70;1.10;;;;;;;;;;5030909;28;20128;-79
2021/09/15 02:06:42;;;;;;;2.85;1.20;;;;;;;;;;5027318;28;20042;-79
2021/09/15 02:09:08;;;;;;;1.20;1.20;;;;;;;;;;5033684;28;20049;-79
2021/09/15 02:11:36;;;;;;;1.00;1.00;;;;;;;;;;5032882;28;20041;-79
2021/09/15 02:14:03;;;;;;;2.05;1.20;;;;;;;;;;5048476;28;20698;-79
2021/09/15 02:16:31;;;;;;;1.60;1.50;;;;;;;;;;5063622;28;20038;-79
2021/09/15 02:18:58;;;;;;;1.02;1.02;;;;;;;;;;5030429;28;20026;-79
2021/09/15 02:21:25;;;;;;;1.10;1.10;;;;;;;;;;5033043;28;20041;-79
2021/09/15 02:23:52;;;;;;;1.15;1.15;;;;;;;;;;5032556;28;20107;-79
2021/09/15 02:26:19;;;;;;;1.20;1.20;;;;;;;;;;5025293;28;20402;-79
2021/09/15 02:28:46;;;;;;;1.40;1.30;;;;;;;;;;5029936;28;20033;-79
2021/09/15 02:31:13;;;;;;;1.20;1.20;;;;;;;;;;5031659;28;20038;-79
2021/09/15 02:33:40;;;;;;;1.30;1.30;;;;;;;;;;5031540;28;20034;-79
2021/09/15 02:36:06;;;;;;;1.48;1.23;;;;;;;;;;5032064;28;20041;-79
2021/09/15 02:38:33;;;;;;;1.77;1.30;;;;;;;;;;5019563;28;20455;-79
2021/09/15 02:41:00;;;;;;;1.27;1.27;;;;;;;;;;5030132;28;20057;-79
2021/09/15 02:43:26;;;;;;;1.00;1.00;;;;;;;;;;5033524;28;20038;-79
2021/09/15 02:45:53;;;;;;;1.65;1.00;;;;;;;;;;5032520;28;20563;-79
2021/09/15 02:48:21;;;;;;;3.33;1.13;;;;;;;;;;5030390;28;20482;-79
2021/09/15 02:50:48;;;;;;;1.27;1.27;;;;;;;;;;5030760;28;20073;-79
2021/09/15 02:53:15;;;;;;;1.55;1.40;;;;;;;;;;5030943;28;20087;-79
2021/09/15 02:55:42;;;;;;;3.35;1.17;;;;;;;;;;5026397;28;20046;-79
2021/09/15 02:58:08;;;;;;;2.47;1.50;;;;;;;;;;5032579;28;20096;-79
2021/09/15 03:00:35;;;;;;;2.50;1.42;;;;;;;;;;5044223;28;20049;-79
2021/09/15 03:03:03;;;;;;;1.38;1.38;;;;;;;;;;5017437;28;20046;-79
2021/09/15 03:05:31;;;;;;;1.35;1.25;;;;;;;;;;5032668;28;20045;-79
2021/09/15 03:07:59;;;;;;;2.95;1.60;;;;;;;;;;5025634;28;20096;-79
2021/09/15 03:10:27;;;;;;;1.35;1.30;;;;;;;;;;5027881;28;20030;-79
2021/09/15 03:12:54;;;;;;;2.08;1.67;;;;;;;;;;5042695;28;20041;-79
2021/09/15 03:15:21;;;;;;;1.55;1.30;;;;;;;;;;5029535;28;20042;-79
2021/09/15 03:17:48;;;;;;;1.95;1.10;;;;;;;;;;5023775;28;20046;-79
2021/09/15 03:20:14;;;;;;;2.10;1.80;;;;;;;;;;5030531;28;20045;-79
2021/09/15 03:22:41;;;;;;;2.88;2.00;;;;;;;;;;5046211;28;20053;-79
2021/09/15 03:25:09;;;;;;;1.95;1.83;;;;;;;;;;5029484;28;20042;-79
2021/09/15 03:27:36;;;;;;;1.92;1.77;;;;;;;;;;5014636;28;20104;-79
2021/09/15 03:30:04;;;;;;;3.55;1.40;;;;;;;;;;5031975;28;20436;-79
2021/09/15 03:32:31;;;;;;;1.10;1.10;;;;;;;;;;5030067;28;20445;-79
2021/09/15 03:34:58;;;;;;;1.95;1.20;;;;;;;;;;5030810;28;20042;-79
2021/09/15 03:37:25;;;;;;;1.88;1.80;;;;;;;;;;5045019;28;20045;-79
2021/09/15 03:39:52;;;;;;;1.48;1.38;;;;;;;;;;5060329;28;20658;-79
2021/09/15 03:42:18;;;;;;;1.40;1.40;;;;;;;;;;5032341;28;20041;-79
2021/09/15 03:44:45;;;;;;;1.45;1.35;;;;;;;;;;5013205;28;20069;-79
2021/09/15 03:47:12;;;;;;;2.25;1.60;;;;;;;;;;5028077;28;20084;-79
2021/09/15 03:49:39;;;;;;;1.60;1.50;;;;;;;;;;5029203;28;20119;-79
2021/09/15 03:52:06;;;;;;;1.50;1.45;;;;;;;;;;5030275;28;20057;-79
2021/09/15 03:54:34;;;;;;;1.38;1.38;;;;;;;;;;5031680;28;20092;-79
2021/09/15 03:57:01;;;;;;;1.70;1.60;;;;;;;;;;5029758;28;20045;-79
2021/09/15 03:59:27;;;;;;;1.45;1.45;;;;;;;;;;5019728;28;20030;-79
2021/09/15 04:01:54;;;;;;;1.60;1.50;;;;;;;;;;5029478;28;20061;-79
2021/09/15 04:04:21;;;;;;;1.40;1.40;;;;;;;;;;5029863;28;20042;-79
2021/09/15 04:06:48;;;;;;;4.13;1.42;;;;;;;;;;5030533;28;20452;-79
2021/09/15 04:09:15;;;;;;;1.20;1.20;;;;;;;;;;5029816;28;20042;-79
2021/09/15 04:11:42;;;;;;;1.30;1.30;;;;;;;;;;5028690;28;20037;-79
2021/09/15 04:14:08;;;;;;;1.17;1.10;;;;;;;;;;5025824;28;20095;-79
2021/09/15 04:16:35;;;;;;;1.50;1.40;;;;;;;;;;5030388;28;20064;-79
2021/09/15 04:19:02;;;;;;;1.13;1.02;;;;;;;;;;5030133;28;20470;-79
2021/09/15 04:21:29;;;;;;;1.67;1.58;;;;;;;;;;5027027;28;20641;-79
2021/09/15 04:31:54;;;;;;;1.52;1.42;;;;;;;;;;5026396;28;20030;-79
2021/09/15 04:34:21;;;;;;;3.10;1.25;;;;;;;;;;5010114;28;20099;-79
2021/09/15 04:36:47;;;;;;;1.63;1.63;;;;;;;;;;5051663;28;20037;-79
2021/09/15 04:39:14;;;;;;;8.98;2.28;;;;;;;;;;5029108;28;20441;-79
2021/09/15 04:41:41;;;;;;;1.75;1.65;;;;;;;;;;5029356;28;20394;-79
2021/09/15 04:44:08;;;;;;;3.15;1.35;;;;;;;;;;5031080;28;20072;-79
2021/09/15 04:46:34;;;;;;;2.28;2.28;;;;;;;;;;5023663;28;20041;-79
2021/09/15 04:49:01;;;;;;;2.03;1.92;;;;;;;;;;5028829;28;20087;-79
2021/09/15 04:51:28;;;;;;;2.25;2.20;;;;;;;;;;5030031;28;20037;-79
2021/09/15 04:53:55;;;;;;;2.53;2.33;;;;;;;;;;5027943;28;20465;-79
2021/09/15 04:56:21;;;;;;;1.55;1.48;;;;;;;;;;5021704;28;20100;-79
2021/09/15 04:58:48;;;;;;;3.35;1.98;;;;;;;;;;5028689;28;20044;-79
2021/09/15 05:01:15;;;;;;;1.50;1.50;;;;;;;;;;5060469;28;20037;-79
2021/09/15 05:03:42;;;;;;;2.97;1.88;;;;;;;;;;5045215;28;20120;-79
2021/09/15 05:06:09;;;;;;;1.92;1.83;;;;;;;;;;5028555;28;20038;-79
2021/09/15 05:08:36;;;;;;;1.45;1.45;;;;;;;;;;5027954;28;20102;-79
2021/09/15 05:11:02;;;;;;;1.52;1.42;;;;;;;;;;5025853;28;20053;-79
2021/09/15 05:13:29;;;;;;;1.70;1.70;;;;;;;;;;5043822;28;20434;-79
2021/09/15 05:15:56;;;;;;;1.75;1.63;;;;;;;;;;5011984;28;20879;-79
2021/09/15 05:18:26;;;;;;;1.85;1.85;;;;;;;;;;5058114;28;20045;-79
2021/09/15 05:20:53;;;;;;;1.60;1.40;;;;;;;;;;5028712;28;20033;-80
2021/09/15 05:23:20;;;;;;;1.92;1.83;;;;;;;;;;5056526;28;20191;-80
2021/09/15 05:25:47;;;;;;;8.30;1.60;;;;;;;;;;5060056;28;20037;-80
2021/09/15 05:28:13;;;;;;;1.75;1.30;;;;;;;;;;5042748;28;20053;-80
2021/09/15 05:30:40;;;;;;;3.50;1.70;;;;;;;;;;5049179;28;20049;-80
2021/09/15 05:33:08;;;;;;;2.17;1.88;;;;;;;;;;5034433;28;20045;-79
2021/09/15 05:35:35;;;;;;;2.10;2.00;;;;;;;;;;5033968;28;20045;-80
2021/09/15 05:38:02;;;;;;;1.65;1.65;;;;;;;;;;5033871;28;20049;-80
2021/09/15 05:40:28;;;;;;;2.75;1.60;;;;;;;;;;5034118;28;20055;-80
2021/09/15 05:42:55;;;;;;;1.73;1.65;;;;;;;;;;5033714;28;20091;-80
2021/09/15 05:45:22;;;;;;;2.28;2.08;;;;;;;;;;5033788;28;20048;-80
2021/09/15 05:47:48;;;;;;;3.83;1.92;;;;;;;;;;5034156;28;20053;-80
2021/09/15 05:50:15;;;;;;;2.25;2.15;;;;;;;;;;5035117;28;20581;-80
2021/09/15 05:52:45;;;;;;;3.92;2.25;;;;;;;;;;5046750;28;20065;-80
2021/09/15 05:55:12;;;;;;;2.03;1.90;;;;;;;;;;5033183;28;20038;-80
2021/09/15 05:57:38;;;;;;;3.13;2.00;;;;;;;;;;5033021;28;20052;-80
2021/09/15 06:00:06;;;;;;;3.55;1.70;;;;;;;;;;5033416;28;20421;-80
2021/09/15 06:02:51;;;;;;;6.00;2.65;;;;;;;;;;5028610;28;20119;-80
2021/09/15 06:05:17;;;;;;;6.57;2.78;;;;;;;;;;5032548;28;20038;-80
2021/09/15 06:07:44;;;;;;;2.65;2.55;;;;;;;;;;5033727;28;20037;-80
2021/09/15 06:10:11;;;;;;;1.90;1.80;;;;;;;;;;5033366;28;20052;-80
2021/09/15 06:12:38;;;;;;;3.40;2.47;;;;;;;;;;5032511;28;20094;-80
2021/09/15 06:15:05;;;;;;;3.00;2.00;;;;;;;;;;5031372;28;20033;-80
2021/09/15 06:17:32;;;;;;;5.82;2.65;;;;;;;;;;5030809;28;20033;-80
2021/09/15 06:19:58;;;;;;;1.60;1.60;;;;;;;;;;5032757;28;20452;-80
2021/09/15 06:22:25;;;;;;;7.30;3.05;;;;;;;;;;5029822;28;20053;-80
2021/09/15 06:24:55;;;;;;;3.00;1.60;;;;;;;;;;5031398;28;20054;-80
2021/09/15 06:27:22;;;;;;;4.03;2.40;;;;;;;;;;5032680;28;20064;-80
2021/09/15 06:29:49;;;;;;;2.35;2.25;;;;;;;;;;5032811;28;20045;-80
2021/09/15 06:32:19;;;;;;;3.10;1.92;;;;;;;;;;5015811;28;20045;-80
2021/09/15 06:34:46;;;;;;;2.85;1.90;;;;;;;;;;5032711;28;20048;-80
2021/09/15 06:37:16;;;;;;;1.70;1.60;;;;;;;;;;5032723;28;20171;-80
2021/09/15 06:39:42;;;;;;;4.10;1.45;;;;;;;;;;5033124;28;20551;-80
2021/09/15 06:42:09;;;;;;;2.58;2.45;;;;;;;;;;5031134;28;20041;-80
2021/09/15 06:44:36;;;;;;;2.92;1.70;;;;;;;;;;5047936;28;20447;-80
2021/09/15 06:47:03;;;;;;;3.47;2.05;;;;;;;;;;5030696;28;20049;-80
2021/09/15 06:49:30;;;;;;;2.28;1.77;;;;;;;;;;5034244;28;20037;-80
2021/09/15 06:51:57;;;;;;;1.67;1.67;;;;;;;;;;5032852;28;20103;-80
2021/09/15 06:54:23;;;;;;;2.58;1.48;;;;;;;;;;5031931;28;20037;-80
2021/09/15 06:56:50;;;;;;;5.20;1.73;;;;;;;;;;5030731;28;20079;-80
2021/09/15 06:59:17;;;;;;;1.50;1.50;;;;;;;;;;5014167;28;20176;-80
2021/09/15 07:01:44;;;;;;;2.08;1.40;;;;;;;;;;5030932;28;20029;-80
2021/09/15 07:04:11;;;;;;;2.00;1.90;;;;;;;;;;5033351;28;20461;-80
2021/09/15 07:06:38;;;;;;;4.60;1.92;;;;;;;;;;5032805;28;20529;-80
2021/09/15 07:09:05;;;;;;;2.08;2.05;;;;;;;;;;5031763;28;20038;-80
2021/09/15 07:11:32;;;;;;;2.55;1.70;;;;;;;;;;5031357;28;20053;-80
2021/09/15 07:14:03;;;;;;;2.28;1.90;;;;;;;;;;5030994;28;20048;-80
2021/09/15 07:16:33;;;;;;;6.53;2.20;;;;;;;;;;5026643;28;20582;-80
2021/09/15 07:19:00;;;;;;;6.45;2.72;;;;;;;;;;5021415;28;20033;-79
2021/09/15 07:21:27;;;;;;;4.40;2.28;;;;;;;;;;5032243;28;20048;-79
2021/09/15 07:23:54;;;;;;;6.28;2.05;;;;;;;;;;5031913;28;20053;-79
2021/09/15 07:26:21;;;;;;;5.95;2.03;;;;;;;;;;5064659;28;20095;-79
2021/09/15 07:28:48;;;;;;;2.13;2.08;;;;;;;;;;5030097;28;20473;-79
2021/09/15 07:31:14;;;;;;;1.95;1.80;;;;;;;;;;5031882;28;20099;-79
2021/09/15 07:33:41;;;;;;;2.70;1.95;;;;;;;;;;5031913;28;20037;-80
2021/09/15 07:36:08;;;;;;;3.55;1.90;;;;;;;;;;5031695;28;20468;-80
2021/09/15 07:38:35;;;;;;;2.75;2.65;;;;;;;;;;5032415;28;20042;-80
2021/09/15 07:41:02;;;;;;;3.15;1.92;;;;;;;;;;5058838;28;20084;-80
2021/09/15 07:43:29;;;;;;;3.55;2.55;;;;;;;;;;5046190;28;20096;-80
2021/09/15 07:45:56;;;;;;;5.20;2.72;;;;;;;;;;5039569;28;20168;-80
2021/09/15 07:48:24;;;;;;;5.75;2.45;;;;;;;;;;5021588;28;20046;-80
2021/09/15 07:50:50;;;;;;;3.00;1.40;;;;;;;;;;5030481;28;20049;-80
2021/09/15 07:53:18;;;;;;;4.72;1.90;;;;;;;;;;5042457;28;20044;-80
2021/09/15 07:55:45;;;;;;;5.95;1.75;;;;;;;;;;5029472;28;20041;-80
2021/09/15 07:58:12;;;;;;;2.58;1.77;;;;;;;;;;5013299;28;20490;-80
2021/09/15 08:00:39;;;;;;;3.22;2.05;;;;;;;;;;5031615;28;20042;-80
2021/09/15 08:03:06;;;;;;;1.52;1.42;;;;;;;;;;5031403;28;20046;-80
2021/09/15 08:05:32;;;;;;;2.25;1.40;;;;;;;;;;5031049;28;20046;-80
2021/09/15 08:08:01;;;;;;;2.20;1.85;;;;;;;;;;5032041;28;20596;-80
2021/09/15 08:10:28;;;;;;;1.50;1.48;;;;;;;;;;5025923;28;20150;-80
2021/09/15 08:12:54;;;;;;;1.48;1.38;;;;;;;;;;5033001;28;20045;-80
2021/09/15 08:15:25;;;;;;;2.83;1.48;;;;;;;;;;5020527;28;20034;-80
2021/09/15 08:17:52;;;;;;;1.73;1.45;;;;;;;;;;5054140;28;20060;-80
2021/09/15 08:20:19;;;;;;;1.60;1.42;;;;;;;;;;5029946;28;20033;-80
2021/09/15 08:22:45;;;;;;;5.38;1.95;;;;;;;;;;5027062;28;20049;-80
2021/09/15 08:25:12;;;;;;;2.55;1.75;;;;;;;;;;5045436;28;20061;-80
2021/09/15 08:27:39;;;;;;;1.80;1.77;;;;;;;;;;5022475;28;20046;-80
2021/09/15 08:30:07;;;;;;;1.80;1.30;;;;;;;;;;5022931;28;20155;-80
2021/09/15 08:32:34;;;;;;;2.55;1.50;;;;;;;;;;5029997;28;20103;-80
2021/09/15 08:35:01;;;;;;;1.50;1.40;;;;;;;;;;5060917;28;20626;-80
2021/09/15 08:37:31;;;;;;;4.10;1.85;;;;;;;;;;5029390;28;20417;-80
2021/09/15 08:39:59;;;;;;;4.03;1.60;;;;;;;;;;5031381;28;20037;-80
2021/09/15 08:42:26;;;;;;;2.35;1.50;;;;;;;;;;5029896;28;20489;-80
2021/09/15 08:44:52;;;;;;;1.30;1.30;;;;;;;;;;5031408;28;20104;-80
2021/09/15 08:47:21;;;;;;;1.40;1.40;;;;;;;;;;5028911;28;20045;-80
2021/09/15 08:49:48;;;;;;;1.35;1.20;;;;;;;;;;5028610;28;20099;-80
2021/09/15 08:52:15;;;;;;;5.68;1.23;;;;;;;;;;5029280;28;20547;-80
2021/09/15 08:54:42;;;;;;;1.50;1.40;;;;;;;;;;5029339;28;20052;-80
2021/09/15 08:57:08;;;;;;;2.95;1.30;;;;;;;;;;5045668;28;20038;-80
2021/09/15 08:59:35;;;;;;;1.33;1.23;;;;;;;;;;5023805;28;20033;-80
2021/09/15 09:02:09;;;;;;;2.35;1.63;;;;;;;;;;5054980;28;20143;-80
2021/09/15 09:04:50;;;;;;;6.30;1.52;;;;;;;;;;5030014;28;20107;-80
2021/09/15 09:07:17;;;;;;;1.85;1.17;;;;;;;;;;5024618;28;20063;-80
2021/09/15 09:09:45;;;;;;;2.65;1.23;;;;;;;;;;5029795;28;20041;-80
2021/09/15 09:12:12;;;;;;;4.57;1.73;;;;;;;;;;5061384;28;20483;-80
2021/09/15 09:14:38;;;;;;;4.72;1.00;;;;;;;;;;5029891;28;20037;-80
2021/09/15 09:17:05;;;;;;;2.03;1.00;;;;;;;;;;5030792;28;20100;-80
2021/09/15 09:19:32;;;;;;;1.20;1.10;;;;;;;;;;5025124;28;20086;-80
2021/09/15 09:22:04;;;;;;;1.90;0.98;;;;;;;;;;5029270;28;20046;-80
2021/09/15 09:24:31;;;;;;;1.20;1.00;;;;;;;;;;5030583;28;20034;-80
2021/09/15 09:27:02;;;;;;;3.08;1.63;;;;;;;;;;5015758;28;20049;-80
2021/09/15 09:29:30;;;;;;;3.90;0.98;;;;;;;;;;5045106;28;20045;-80
2021/09/15 09:31:58;;;;;;;1.33;1.10;;;;;;;;;;5029574;28;20045;-80
2021/09/15 09:34:26;;;;;;;2.17;1.00;;;;;;;;;;5031015;28;20061;-80
2021/09/15 09:37:03;;;;;;;2.72;0.90;;;;;;;;;;5028823;28;20025;-80
2021/09/15 09:39:33;;;;;;;2.45;1.30;;;;;;;;;;5029310;28;20041;-80
2021/09/15 09:42:00;;;;;;;2.90;0.93;;;;;;;;;;5030816;28;20088;-80
2021/09/15 09:44:27;;;;;;;2.30;1.77;;;;;;;;;;5028961;28;20069;-80
2021/09/15 09:46:54;;;;;;;3.95;1.23;;;;;;;;;;5029024;28;20049;-80
2021/09/15 09:49:21;;;;;;;4.82;1.10;;;;;;;;;;5029486;28;20111;-80
2021/09/15 09:51:48;;;;;;;1.55;1.10;;;;;;;;;;5030010;28;20120;-80
2021/09/15 09:54:25;;;;;;;1.30;1.15;;;;;;;;;;5028189;28;20053;-80
2021/09/15 09:56:53;;;;;;;4.75;0.88;;;;;;;;;;5029732;28;20470;-80
2021/09/15 09:59:21;;;;;;;2.05;0.98;;;;;;;;;;5030731;28;20076;-80
2021/09/15 10:01:49;;;;;;;5.85;1.42;;;;;;;;;;5028366;28;20033;-80
2021/09/15 10:04:17;;;;;;;0.77;0.77;;;;;;;;;;5030146;28;20041;-80
2021/09/15 10:06:44;;;;;;;1.65;0.80;;;;;;;;;;5042980;28;20041;-80
2021/09/15 10:09:11;;;;;;;1.98;0.80;;;;;;;;;;5026695;28;20057;-80
2021/09/15 10:11:39;;;;;;;1.70;0.88;;;;;;;;;;5029468;28;20042;-80
2021/09/15 10:14:08;;;;;;;2.83;0.80;;;;;;;;;;5058859;28;20432;-80
2021/09/15 10:16:39;;;;;;;3.53;0.80;;;;;;;;;;5037691;28;20052;-80
2021/09/15 10:19:07;;;;;;;1.23;0.88;;;;;;;;;;5031374;28;20486;-80
2021/09/15 10:21:35;;;;;;;0.82;0.82;;;;;;;;;;5017437;28;20068;-80
2021/09/15 10:24:02;;;;;;;0.60;0.60;;;;;;;;;;5031353;28;20072;-80
2021/09/15 10:26:39;;;;;;;1.98;0.60;;;;;;;;;;5032100;28;20034;-80
2021/09/15 10:29:18;;;;;;;1.92;0.70;;;;;;;;;;5049028;28;20410;-80
2021/09/15 10:31:48;;;;;;;2.17;0.82;;;;;;;;;;5030165;28;20103;-80
2021/09/15 10:34:33;;;;;;;0.80;0.73;;;;;;;;;;5032909;28;20048;-80
2021/09/15 10:37:00;;;;;;;1.02;0.70;;;;;;;;;;5029636;28;20111;-80
2021/09/15 10:39:28;;;;;;;0.70;0.70;;;;;;;;;;5033847;28;20037;-80
2021/09/15 10:41:55;;;;;;;3.38;1.33;;;;;;;;;;5033085;28;20560;-80
2021/09/15 10:44:23;;;;;;;0.85;0.60;;;;;;;;;;5048881;28;20092;-80
2021/09/15 10:47:09;;;;;;;0.70;0.70;;;;;;;;;;5046930;28;20049;-80
2021/09/15 10:49:36;;;;;;;1.80;0.63;;;;;;;;;;5031760;28;20531;-80
2021/09/15 10:52:09;;;;;;;2.75;0.90;;;;;;;;;;5031231;28;20107;-80
2021/09/15 10:54:46;;;;;;;0.60;0.60;;;;;;;;;;5025601;28;20431;-80
2021/09/15 10:57:18;;;;;;;1.30;0.80;;;;;;;;;;5043724;28;20405;-80
2021/09/15 10:59:55;;;;;;;2.25;0.70;;;;;;;;;;5043891;28;20583;-80
2021/09/15 11:02:35;;;;;;;3.08;0.70;;;;;;;;;;5029235;28;20037;-80
2021/09/15 11:05:22;;;;;;;0.57;0.57;;;;;;;;;;5031570;28;20153;-80
2021/09/15 11:07:49;;;;;;;0.60;0.60;;;;;;;;;;5035400;28;20057;-80
2021/09/15 11:10:34;;;;;;;1.13;0.80;;;;;;;;;;5046362;28;20421;-80
2021/09/15 11:13:03;;;;;;;0.60;0.60;;;;;;;;;;5036208;28;20080;-80
2021/09/15 11:15:30;;;;;;;2.97;0.70;;;;;;;;;;5029011;28;20089;-80
2021/09/15 11:17:57;;;;;;;2.45;0.70;;;;;;;;;;5023563;28;20038;-80
2021/09/15 11:20:25;;;;;;;1.95;0.70;;;;;;;;;;5029602;28;20049;-80
2021/09/15 11:22:52;;;;;;;2.17;0.60;;;;;;;;;;5030169;28;20064;-80
2021/09/15 11:25:23;;;;;;;1.67;0.60;;;;;;;;;;5030914;28;20054;-80
2021/09/15 11:28:08;;;;;;;2.00;0.70;;;;;;;;;;5031297;28;20076;-80
2021/09/15 11:30:37;;;;;;;0.60;0.60;;;;;;;;;;5023088;28;20359;-80
2021/09/15 11:33:04;;;;;;;1.05;0.73;;;;;;;;;;5035199;28;20041;-80
2021/09/15 11:35:49;;;;;;;1.58;0.70;;;;;;;;;;5035126;28;20042;-80
2021/09/15 11:38:16;;;;;;;0.77;0.70;;;;;;;;;;5030790;28;20041;-78
2021/09/15 11:40:42;;;;;;;0.93;0.70;;;;;;;;;;5029632;28;20107;-78
2021/09/15 11:43:09;;;;;;;0.88;0.60;;;;;;;;;;5029225;28;20117;-78
2021/09/15 11:45:36;;;;;;;0.60;0.60;;;;;;;;;;5022822;28;20029;-78
2021/09/15 11:48:03;;;;;;;3.00;0.70;;;;;;;;;;5029974;28;20037;-78
2021/09/15 11:50:33;;;;;;;2.25;0.70;;;;;;;;;;5062226;28;20416;-78
2021/09/15 11:55:30;;;;;;;1.55;0.70;;;;;;;;;;5029365;28;20422;-78
2021/09/15 11:58:01;;;;;;;1.02;0.63;;;;;;;;;;5030355;28;20073;-78
2021/09/15 12:00:32;;;;;;;1.35;0.68;;;;;;;;;;5027549;28;20037;-78
2021/09/15 12:03:01;;;;;;;1.05;0.70;;;;;;;;;;5028164;28;20069;-78
2021/09/15 12:05:28;;;;;;;2.00;0.60;;;;;;;;;;5031144;28;20072;-78
2021/09/15 12:07:55;;;;;;;3.05;0.73;;;;;;;;;;5028884;28;20049;-78
2021/09/15 12:10:23;;;;;;;0.80;0.75;;;;;;;;;;5026692;28;20044;-78
2021/09/15 12:12:50;;;;;;;2.50;0.70;;;;;;;;;;5043641;28;20072;-78
2021/09/15 12:15:18;;;;;;;0.60;0.60;;;;;;;;;;5060590;28;20065;-78
2021/09/15 12:17:54;;;;;;;1.60;0.70;;;;;;;;;;5029456;28;20038;-78
2021/09/15 12:20:41;;;;;;;1.60;0.60;;;;;;;;;;5025859;28;20042;-78
2021/09/15 12:23:09;;;;;;;2.95;0.75;;;;;;;;;;5029526;28;20381;-78
2021/09/15 12:25:36;;;;;;;1.27;0.77;;;;;;;;;;5027940;28;20061;-78
2021/09/15 12:28:04;;;;;;;1.02;0.70;;;;;;;;;;5027864;28;20131;-78
2021/09/15 12:30:31;;;;;;;2.75;0.65;;;;;;;;;;5029723;28;20030;-78
2021/09/15 12:32:59;;;;;;;3.95;0.73;;;;;;;;;;5027722;28;20041;-79
2021/09/15 12:35:33;;;;;;;0.60;0.60;;;;;;;;;;5029370;28;20624;-79
2021/09/15 12:38:00;;;;;;;0.70;0.60;;;;;;;;;;5027380;28;20040;-79
2021/09/15 12:40:26;;;;;;;1.88;0.50;;;;;;;;;;5027181;28;20379;-79
2021/09/15 12:43:01;;;;;;;0.95;0.50;;;;;;;;;;5029386;28;20045;-79
2021/09/15 12:45:29;;;;;;;2.33;0.50;;;;;;;;;;5029332;28;20037;-79
2021/09/15 12:47:56;;;;;;;0.50;0.50;;;;;;;;;;5029507;28;20441;-79
2021/09/15 12:50:27;;;;;;;0.93;0.50;;;;;;;;;;5030176;28;20468;-79
2021/09/15 12:53:10;;;;;;;0.70;0.50;;;;;;;;;;5062464;28;20044;-79
2021/09/15 12:55:48;;;;;;;1.23;0.57;;;;;;;;;;5052112;28;20534;-79
2021/09/15 12:58:28;;;;;;;1.48;0.57;;;;;;;;;;5021129;28;20040;-79
2021/09/15 13:00:56;;;;;;;0.70;0.60;;;;;;;;;;5028870;28;20069;-79
2021/09/15 13:03:34;;;;;;;0.50;0.50;;;;;;;;;;5025196;28;20068;-79
2021/09/15 13:06:01;;;;;;;0.60;0.60;;;;;;;;;;5018013;28;20045;-79
2021/09/15 13:08:29;;;;;;;1.02;0.60;;;;;;;;;;5017721;28;20050;-79
2021/09/15 13:10:57;;;;;;;0.70;0.60;;;;;;;;;;5038149;28;20041;-79
2021/09/15 13:13:25;;;;;;;0.60;0.60;;;;;;;;;;5030381;28;20042;-79
2021/09/15 13:15:52;;;;;;;1.60;0.60;;;;;;;;;;5029763;28;20029;-79
2021/09/15 13:18:20;;;;;;;1.13;0.50;;;;;;;;;;5001307;28;20068;-79
2021/09/15 13:20:47;;;;;;;5.65;0.70;;;;;;;;;;5060245;28;20103;-79
2021/09/15 13:23:13;;;;;;;0.60;0.60;;;;;;;;;;5061132;28;20658;-79
2021/09/15 13:25:41;;;;;;;0.60;0.60;;;;;;;;;;5030449;28;20046;-79
2021/09/15 13:28:08;;;;;;;2.10;0.60;;;;;;;;;;5043563;28;20060;-79
2021/09/15 13:30:35;;;;;;;1.20;0.50;;;;;;;;;;5036915;28;20046;-79
2021/09/15 13:33:02;;;;;;;0.50;0.50;;;;;;;;;;5028039;28;20053;-79
2021/09/15 13:35:29;;;;;;;2.83;0.50;;;;;;;;;;5029484;28;20029;-79
2021/09/15 13:37:56;;;;;;;0.60;0.60;;;;;;;;;;5062427;28;20049;-79
2021/09/15 13:40:23;;;;;;;0.80;0.70;;;;;;;;;;5027861;28;20046;-79
2021/09/15 13:42:49;;;;;;;1.17;0.50;;;;;;;;;;5029516;28;20053;-79
2021/09/15 13:45:17;;;;;;;3.03;1.40;;;;;;;;;;5028438;28;20076;-79
2021/09/15 13:47:44;;;;;;;0.70;0.60;;;;;;;;;;5060450;28;20133;-79
2021/09/15 13:50:13;;;;;;;0.63;0.63;;;;;;;;;;5030164;28;20046;-79
2021/09/15 13:52:40;;;;;;;0.60;0.60;;;;;;;;;;5025469;28;20061;-79
2021/09/15 13:55:08;;;;;;;0.60;0.60;;;;;;;;;;5027060;28;20042;-79
2021/09/15 13:57:35;;;;;;;2.38;0.60;;;;;;;;;;5032689;28;20531;-79
2021/09/15 14:00:03;;;;;;;3.05;0.88;;;;;;;;;;5015883;28;20052;-79
2021/09/15 14:02:30;;;;;;;2.47;0.70;;;;;;;;;;5064664;28;20034;-79
2021/09/15 14:04:58;;;;;;;0.60;0.60;;;;;;;;;;5031150;28;20103;-79
2021/09/15 14:07:25;;;;;;;2.22;0.70;;;;;;;;;;5033316;28;20077;-79
2021/09/15 14:09:51;;;;;;;1.30;0.70;;;;;;;;;;5032014;28;20029;-79
2021/09/15 14:12:38;;;;;;;1.38;0.70;;;;;;;;;;5035913;28;20045;-79
2021/09/15 14:15:06;;;;;;;0.75;0.60;;;;;;;;;;5032855;28;20053;-79
2021/09/15 14:17:33;;;;;;;0.70;0.70;;;;;;;;;;5044672;28;20038;-79
2021/09/15 14:20:00;;;;;;;1.85;0.70;;;;;;;;;;5062091;28;20047;-79
2021/09/15 14:22:27;;;;;;;0.70;0.70;;;;;;;;;;5031173;28;20048;-79
2021/09/15 14:24:54;;;;;;;0.60;0.60;;;;;;;;;;5036585;28;20038;-79
2021/09/15 14:27:21;;;;;;;1.77;0.70;;;;;;;;;;5063688;28;20383;-79
2021/09/15 14:29:48;;;;;;;0.68;0.68;;;;;;;;;;5061267;28;20050;-79
2021/09/15 14:32:15;;;;;;;0.80;0.80;;;;;;;;;;5032143;28;20056;-79
2021/09/15 14:34:42;;;;;;;3.08;0.70;;;;;;;;;;5063158;28;20037;-79
2021/09/15 14:37:09;;;;;;;0.70;0.70;;;;;;;;;;5031658;28;20045;-79
2021/09/15 14:39:36;;;;;;;8.05;0.70;;;;;;;;;;5032500;28;20061;-79
2021/09/15 14:42:03;;;;;;;0.93;0.80;;;;;;;;;;5065426;28;20179;-79
2021/09/15 14:44:30;;;;;;;0.98;0.70;;;;;;;;;;5030772;28;20104;-79
2021/09/15 14:46:57;;;;;;;0.70;0.70;;;;;;;;;;5038929;28;20492;-79
2021/09/15 14:49:24;;;;;;;1.88;0.70;;;;;;;;;;5024464;28;20069;-79
2021/09/15 14:51:50;;;;;;;0.80;0.80;;;;;;;;;;5038975;28;20041;-79
2021/09/15 14:54:17;;;;;;;1.27;0.82;;;;;;;;;;5032550;28;20037;-79
2021/09/15 14:56:44;;;;;;;1.58;0.70;;;;;;;;;;5031920;28;20111;-79
2021/09/15 14:59:11;;;;;;;0.85;0.70;;;;;;;;;;5031808;28;20048;-79